Time;durP1;ratioP1;P1;durP2;ratioP2;P2;SDS_P1;SDS_P2;PMS_P1;PMS_P2;Temp;Humidity;BMP_temperature;BMP_pressure;BME280_temperature;BME280_humidity;BME280_pressure;Samples;Min_cycle;Max_cycle;Signal;HPM_P1;HPM_P2
2023/09/17 00:02:48;;;;;;;7.28;6.57;;;;;;;19.50;85.78;101423.16;6153219;28;20640;-68
2023/09/17 00:06:09;;;;;;;8.35;7.13;;;;;;;19.47;86.05;101421.63;6154075;28;20235;-67
2023/09/17 00:09:31;;;;;;;7.68;6.90;;;;;;;19.47;86.04;101418.03;6152150;28;20321;-68
2023/09/17 00:12:54;;;;;;;8.75;7.88;;;;;;;19.44;86.13;101400.09;6157578;28;20231;-69
2023/09/17 00:16:16;;;;;;;6.93;6.03;;;;;;;19.34;86.26;101415.91;6152936;28;20238;-68
2023/09/17 00:19:36;;;;;;;7.25;6.55;;;;;;;19.33;86.57;101416.91;6158332;28;20227;-68
2023/09/17 00:22:59;;;;;;;6.45;5.95;;;;;;;19.21;87.13;101422.97;6162033;28;20341;-68
2023/09/17 00:26:21;;;;;;;6.95;6.30;;;;;;;19.20;87.57;101422.09;6154833;28;20243;-68
2023/09/17 00:29:42;;;;;;;6.78;6.28;;;;;;;19.23;87.48;101420.91;6141474;28;20227;-68
2023/09/17 00:33:04;;;;;;;6.97;6.38;;;;;;;19.13;88.21;101418.38;6165985;28;20226;-68
2023/09/17 00:36:25;;;;;;;6.95;6.25;;;;;;;19.08;88.42;101429.00;6166118;28;20238;-68
2023/09/17 00:39:46;;;;;;;6.85;6.32;;;;;;;19.06;88.48;101426.44;6163474;28;20242;-68
2023/09/17 00:43:08;;;;;;;7.22;6.55;;;;;;;18.98;88.27;101425.63;6159245;28;20238;-68
2023/09/17 00:46:31;;;;;;;7.68;6.95;;;;;;;18.97;88.63;101429.38;6159802;28;20223;-68
2023/09/17 00:49:54;;;;;;;8.75;7.85;;;;;;;18.99;88.45;101427.31;6161010;28;20286;-68
2023/09/17 00:53:16;;;;;;;7.68;6.88;;;;;;;18.92;88.79;101429.91;6168309;28;20238;-69
2023/09/17 00:56:37;;;;;;;6.85;6.25;;;;;;;18.88;89.10;101425.81;6162677;28;20231;-67
2023/09/17 01:00:02;;;;;;;7.60;6.20;;;;;;;18.85;89.36;101422.59;6162730;28;20235;-68
2023/09/17 01:03:23;;;;;;;8.60;7.70;;;;;;;18.87;88.79;101412.34;6163883;28;20545;-67
2023/09/17 01:06:44;;;;;;;8.73;7.75;;;;;;;18.76;89.15;101409.97;6163325;28;20234;-67
2023/09/17 01:10:08;;;;;;;8.68;6.85;;;;;;;18.61;89.49;101415.31;6158678;28;20231;-66
2023/09/17 01:13:29;;;;;;;7.00;6.40;;;;;;;18.64;89.71;101425.06;6166991;28;20250;-68
2023/09/17 01:16:51;;;;;;;7.50;6.90;;;;;;;18.58;90.36;101414.81;6150559;28;20254;-67
2023/09/17 01:20:29;;;;;;;7.32;6.63;;;;;;;18.52;90.31;101412.81;6164514;28;20238;-67
2023/09/17 01:23:54;;;;;;;7.57;6.85;;;;;;;18.51;90.34;101411.94;6159138;28;20317;-67
2023/09/17 01:27:19;;;;;;;7.90;7.10;;;;;;;18.50;90.45;101421.19;6162121;28;20242;-67
2023/09/17 01:30:41;;;;;;;7.72;6.95;;;;;;;18.40;90.82;101414.16;6163866;28;21931;-68
2023/09/17 01:34:03;;;;;;;7.43;6.72;;;;;;;18.39;91.24;101421.50;6159683;28;20230;-67
2023/09/17 01:37:30;;;;;;;9.45;8.45;;;;;;;18.43;91.75;101417.38;6158195;28;20242;-67
2023/09/17 01:40:52;;;;;;;8.13;7.35;;;;;;;18.45;91.15;101419.97;6155245;28;20243;-67
2023/09/17 01:44:15;;;;;;;7.95;7.15;;;;;;;18.34;91.42;101422.00;6146577;28;20230;-67
2023/09/17 01:47:37;;;;;;;6.50;6.00;;;;;;;18.30;91.69;101419.78;6148293;28;20226;-67
2023/09/17 01:50:59;;;;;;;6.57;6.07;;;;;;;18.22;91.91;101417.06;6149157;28;20511;-67
2023/09/17 01:54:20;;;;;;;8.48;7.10;;;;;;;18.28;92.30;101417.25;6164221;28;20223;-67
2023/09/17 01:57:42;;;;;;;8.38;7.60;;;;;;;18.32;92.29;101417.75;6163723;28;20230;-67
2023/09/17 02:01:04;;;;;;;8.85;8.00;;;;;;;18.24;92.08;101409.56;6162674;28;20238;-67
2023/09/17 02:04:25;;;;;;;8.88;8.13;;;;;;;18.21;92.13;101410.75;6154142;28;20622;-67
2023/09/17 02:07:46;;;;;;;7.70;6.93;;;;;;;18.22;92.39;101414.34;6166978;28;20230;-68
2023/09/17 02:11:07;;;;;;;8.25;7.53;;;;;;;18.26;92.56;101411.09;6158788;28;20222;-68
2023/09/17 02:14:27;;;;;;;8.60;7.80;;;;;;;18.20;92.98;101422.72;6159469;28;20533;-67
2023/09/17 02:17:52;;;;;;;8.88;8.02;;;;;;;18.23;92.95;101413.34;6148677;28;20746;-67
2023/09/17 02:21:13;;;;;;;8.10;7.30;;;;;;;18.23;93.02;101413.34;6161008;28;20239;-67
2023/09/17 02:24:34;;;;;;;9.13;8.27;;;;;;;18.14;93.35;101414.34;6157949;28;20239;-68
2023/09/17 02:27:54;;;;;;;8.15;7.30;;;;;;;18.11;92.98;101403.78;6155359;28;20230;-67
2023/09/17 02:31:15;;;;;;;8.80;8.10;;;;;;;18.02;93.14;101404.81;6160535;28;20234;-67
2023/09/17 02:34:38;;;;;;;9.82;8.85;;;;;;;18.08;93.39;101405.00;6156524;28;20341;-68
2023/09/17 02:37:59;;;;;;;8.13;7.43;;;;;;;18.02;93.36;101402.09;6158089;28;20632;-67
2023/09/17 02:41:19;;;;;;;9.10;8.30;;;;;;;17.98;93.28;101408.91;6160026;28;20235;-67
2023/09/17 02:44:42;;;;;;;9.07;8.27;;;;;;;17.90;93.23;101409.75;6158066;28;20231;-67
2023/09/17 02:48:03;;;;;;;7.78;7.07;;;;;;;17.79;93.41;101401.06;6161935;28;20495;-68
2023/09/17 02:51:26;;;;;;;8.98;8.05;;;;;;;17.78;93.59;101402.94;6159087;28;20254;-68
2023/09/17 02:54:47;;;;;;;7.32;6.15;;;;;;;17.83;93.70;101402.44;6128054;28;20222;-67
2023/09/17 02:58:08;;;;;;;7.85;7.18;;;;;;;17.79;94.16;101403.78;6157605;28;20258;-68
2023/09/17 03:01:29;;;;;;;8.40;7.55;;;;;;;17.73;94.39;101401.75;6158736;28;20234;-67
2023/09/17 03:04:51;;;;;;;7.95;7.28;;;;;;;17.68;94.19;101406.84;6147567;28;21235;-67
2023/09/17 03:08:13;;;;;;;8.00;7.30;;;;;;;17.70;94.21;101402.94;6160833;28;20255;-68
2023/09/17 03:11:36;;;;;;;8.23;7.55;;;;;;;17.72;94.04;101402.75;6160623;28;20234;-67
2023/09/17 03:14:57;;;;;;;7.20;6.50;;;;;;;17.64;94.56;101395.44;6151819;28;20242;-68
2023/09/17 03:18:18;;;;;;;7.90;7.10;;;;;;;17.68;94.82;101401.41;6146035;28;20234;-67
2023/09/17 03:21:40;;;;;;;9.07;8.18;;;;;;;17.65;94.88;101401.75;6151642;28;20238;-67
2023/09/17 03:25:02;;;;;;;9.02;7.72;;;;;;;17.63;94.99;101401.91;6145129;28;20239;-68
2023/09/17 03:28:24;;;;;;;7.85;7.15;;;;;;;17.64;95.05;101400.88;6141765;28;20305;-68
2023/09/17 03:31:45;;;;;;;9.30;8.30;;;;;;;17.58;95.37;101403.44;6158488;28;20241;-67
2023/09/17 03:35:08;;;;;;;8.02;7.22;;;;;;;17.64;95.25;101395.44;6153822;28;20257;-67
2023/09/17 03:38:30;;;;;;;7.95;7.22;;;;;;;17.42;95.46;101396.91;6143639;28;20230;-67
2023/09/17 03:41:53;;;;;;;8.00;7.30;;;;;;;17.38;95.70;101395.53;6143971;28;20246;-67
2023/09/17 03:45:14;;;;;;;9.32;7.85;;;;;;;17.47;95.45;101399.97;6144842;28;20238;-67
2023/09/17 03:48:38;;;;;;;7.97;7.28;;;;;;;17.36;95.63;101403.03;6157983;28;20231;-67
2023/09/17 03:51:59;;;;;;;9.55;8.65;;;;;;;17.36;95.86;101399.44;6160804;28;20226;-67
2023/09/17 03:55:21;;;;;;;7.95;7.25;;;;;;;17.36;95.48;101396.72;6158533;28;20238;-67
2023/09/17 03:58:44;;;;;;;8.85;8.15;;;;;;;17.37;95.74;101399.28;6137003;28;20238;-67
2023/09/17 04:02:05;;;;;;;9.60;8.80;;;;;;;17.34;95.78;101393.28;6142261;28;20266;-67
2023/09/17 04:05:28;;;;;;;9.23;8.35;;;;;;;17.34;95.98;101405.06;6157493;28;20604;-68
2023/09/17 04:08:49;;;;;;;10.82;9.93;;;;;;;17.31;96.11;101399.09;6161072;28;20231;-68
2023/09/17 04:12:11;;;;;;;8.25;7.45;;;;;;;17.30;96.09;101409.16;6161267;28;20245;-67
2023/09/17 04:15:33;;;;;;;7.13;6.53;;;;;;;17.35;95.95;101412.22;6154959;28;20325;-68
2023/09/17 04:18:54;;;;;;;7.72;7.03;;;;;;;17.25;95.95;101427.03;6149044;28;20285;-68
2023/09/17 04:22:15;;;;;;;8.48;7.00;;;;;;;17.20;96.33;101422.06;6164094;28;20242;-68
2023/09/17 04:25:36;;;;;;;8.15;7.20;;;;;;;17.19;96.56;101422.25;6141516;28;20231;-68
2023/09/17 04:28:57;;;;;;;7.57;6.88;;;;;;;17.24;96.48;101412.53;6163527;28;20230;-68
2023/09/17 04:32:19;;;;;;;7.38;6.72;;;;;;;17.27;96.30;101408.63;6146148;28;20230;-68
2023/09/17 04:35:41;;;;;;;8.45;7.65;;;;;;;17.21;95.96;101412.03;6146686;28;20579;-68
2023/09/17 04:39:03;;;;;;;9.13;8.20;;;;;;;17.13;96.26;101409.25;6161034;28;20226;-68
2023/09/17 04:42:24;;;;;;;8.13;7.35;;;;;;;17.01;96.72;101416.88;6149625;28;20238;-67
2023/09/17 04:45:46;;;;;;;8.48;7.53;;;;;;;17.08;96.93;101415.22;6145403;28;20250;-68
2023/09/17 04:49:19;;;;;;;7.93;7.22;;;;;;;17.01;96.99;101419.59;6163381;28;20225;-68
2023/09/17 04:52:40;;;;;;;8.13;7.40;;;;;;;17.00;97.40;101427.94;6153870;28;20358;-68
2023/09/17 04:56:01;;;;;;;7.43;6.72;;;;;;;16.90;97.38;101436.22;6155706;28;20227;-67
2023/09/17 04:59:28;;;;;;;7.05;6.45;;;;;;;17.06;97.45;101443.63;6159369;28;20246;-67
2023/09/17 05:02:50;;;;;;;7.60;6.90;;;;;;;16.85;97.22;101445.91;6150427;28;20238;-67
2023/09/17 05:06:12;;;;;;;9.05;7.80;;;;;;;16.97;97.31;101445.47;6149513;28;20227;-69
2023/09/17 05:09:33;;;;;;;8.23;7.47;;;;;;;16.99;97.22;101442.56;6163171;28;20321;-67
2023/09/17 05:12:54;;;;;;;11.45;8.43;;;;;;;16.96;96.98;101453.81;6149523;28;20263;-67
2023/09/17 05:16:15;;;;;;;8.60;7.75;;;;;;;17.00;96.99;101455.19;6159953;28;21814;-67
2023/09/17 05:19:36;;;;;;;7.38;6.78;;;;;;;17.01;96.59;101457.75;6150192;28;20226;-67
2023/09/17 05:22:58;;;;;;;7.40;6.70;;;;;;;17.05;96.44;101461.00;6151497;28;20231;-68
2023/09/17 05:26:21;;;;;;;7.68;6.93;;;;;;;17.14;96.32;101449.97;6150108;28;20226;-68
2023/09/17 05:29:44;;;;;;;8.50;7.72;;;;;;;17.14;95.77;101460.00;6157535;28;20219;-68
2023/09/17 05:33:06;;;;;;;8.35;7.35;;;;;;;17.13;95.59;101463.75;6157903;28;20242;-67
2023/09/17 05:36:27;;;;;;;7.72;7.03;;;;;;;17.12;95.58;101459.31;6160381;28;20227;-68
2023/09/17 05:39:50;;;;;;;8.30;7.45;;;;;;;17.13;95.77;101466.47;6145333;28;20238;-68
2023/09/17 05:43:11;;;;;;;8.30;7.55;;;;;;;17.22;95.40;101460.91;6145244;28;21444;-68
2023/09/17 05:46:33;;;;;;;7.32;6.72;;;;;;;17.26;95.06;101469.59;6156430;28;20317;-68
2023/09/17 05:49:55;;;;;;;8.23;7.53;;;;;;;17.31;94.82;101475.41;6133095;28;20230;-67
2023/09/17 05:53:17;;;;;;;8.15;7.43;;;;;;;17.33;94.83;101474.25;6142074;28;20230;-68
2023/09/17 05:56:39;;;;;;;8.38;7.60;;;;;;;17.42;94.78;101478.69;6156901;28;20242;-68
2023/09/17 06:00:00;;;;;;;6.55;6.05;;;;;;;17.47;94.30;101484.50;6157388;28;20509;-68
2023/09/17 06:03:22;;;;;;;8.23;7.20;;;;;;;17.51;94.15;101490.50;6143372;28;20322;-68
2023/09/17 06:06:43;;;;;;;8.82;7.00;;;;;;;17.59;93.83;101493.25;6157352;28;20648;-68
2023/09/17 06:10:05;;;;;;;8.20;7.50;;;;;;;17.76;93.45;101483.22;6142197;28;20281;-68
2023/09/17 06:13:28;;;;;;;9.02;7.93;;;;;;;17.79;93.27;101485.63;6159753;28;20235;-68
2023/09/17 06:16:49;;;;;;;12.70;7.57;;;;;;;17.75;93.20;101481.53;6160232;28;20479;-68
2023/09/17 06:20:10;;;;;;;7.65;6.97;;;;;;;17.97;93.03;101484.47;6152442;28;20234;-68
2023/09/17 06:23:31;;;;;;;9.23;7.95;;;;;;;18.07;92.79;101481.56;6161099;28;20254;-68
2023/09/17 06:26:53;;;;;;;8.10;7.13;;;;;;;18.05;92.56;101476.28;6151501;28;20227;-68
2023/09/17 06:30:15;;;;;;;8.98;8.13;;;;;;;18.26;91.94;101473.03;6150843;28;20280;-68
2023/09/17 06:33:36;;;;;;;9.20;8.25;;;;;;;18.42;91.60;101475.75;6150999;28;20432;-68
2023/09/17 06:36:58;;;;;;;7.80;7.10;;;;;;;18.55;90.81;101476.09;6141977;28;20242;-67
2023/09/17 06:40:18;;;;;;;8.80;8.00;;;;;;;18.57;90.32;101482.25;6146065;28;20230;-69
2023/09/17 06:43:40;;;;;;;7.88;7.07;;;;;;;18.83;89.89;101482.91;6146531;28;20234;-68
2023/09/17 06:47:02;;;;;;;7.95;7.15;;;;;;;18.89;89.68;101484.06;6157641;28;20239;-68
2023/09/17 06:50:23;;;;;;;7.72;7.05;;;;;;;18.80;88.91;101488.69;6156927;28;20640;-67
2023/09/17 06:53:44;;;;;;;7.30;6.70;;;;;;;18.88;88.87;101487.81;6156517;28;20238;-68
2023/09/17 06:57:05;;;;;;;7.32;6.47;;;;;;;18.82;88.38;101489.38;6156173;28;20242;-68
2023/09/17 07:00:26;;;;;;;6.97;6.28;;;;;;;18.69;88.50;101491.78;6155828;28;20624;-67
2023/09/17 07:03:48;;;;;;;12.50;11.30;;;;;;;18.80;88.86;101483.22;6151302;28;20238;-69
2023/09/17 07:07:09;;;;;;;9.55;8.18;;;;;;;18.95;88.27;101489.69;6157678;28;20230;-67
2023/09/17 07:10:31;;;;;;;9.02;8.23;;;;;;;19.10;88.14;101495.28;6162955;28;20222;-66
2023/09/17 07:13:52;;;;;;;7.75;6.70;;;;;;;19.08;87.93;101500.06;6157720;28;20230;-68
2023/09/17 07:17:13;;;;;;;8.88;6.32;;;;;;;19.33;87.48;101490.75;6162481;28;20242;-68
2023/09/17 07:20:36;;;;;;;8.43;7.63;;;;;;;19.36;86.37;101489.56;6157830;28;20235;-67
2023/09/17 07:23:57;;;;;;;7.47;6.75;;;;;;;19.50;86.15;101500.59;6158350;28;20770;-67
2023/09/17 07:27:18;;;;;;;6.47;5.45;;;;;;;19.59;85.34;101501.41;6157690;28;20317;-66
2023/09/17 07:30:39;;;;;;;7.32;6.72;;;;;;;19.92;84.22;101497.44;6156152;28;20677;-67
2023/09/17 07:34:00;;;;;;;5.95;5.45;;;;;;;20.10;83.91;101489.78;6152755;28;20234;-67
2023/09/17 07:37:22;;;;;;;8.57;6.25;;;;;;;20.12;82.47;101489.59;6159558;28;20265;-67
2023/09/17 07:40:44;;;;;;;7.03;6.32;;;;;;;20.44;82.16;101492.09;6153255;28;20916;-67
2023/09/17 07:44:06;;;;;;;7.30;6.60;;;;;;;20.45;81.55;101486.44;6154399;28;20230;-67
2023/09/17 07:47:27;;;;;;;6.40;5.90;;;;;;;20.46;81.48;101492.75;6154122;28;20234;-67
2023/09/17 07:50:55;;;;;;;6.70;6.00;;;;;;;20.74;81.13;101480.13;6160101;28;20222;-68
2023/09/17 07:54:18;;;;;;;6.22;5.72;;;;;;;20.83;80.51;101487.25;6156836;28;20241;-68
2023/09/17 07:57:39;;;;;;;6.88;5.68;;;;;;;21.06;80.46;101485.31;6158926;28;20227;-67
2023/09/17 08:01:00;;;;;;;7.03;6.30;;;;;;;21.35;79.63;101487.16;6150861;28;20234;-67
2023/09/17 08:04:20;;;;;;;6.43;5.47;;;;;;;21.23;79.14;101492.31;6154834;28;20619;-68
2023/09/17 08:07:42;;;;;;;5.82;5.32;;;;;;;20.86;79.85;101489.59;6156304;28;20239;-67
2023/09/17 08:11:04;;;;;;;6.63;6.03;;;;;;;21.06;79.66;101495.41;6159784;28;20238;-67
2023/09/17 08:14:25;;;;;;;6.40;5.88;;;;;;;21.03;79.65;101493.91;6149319;28;20237;-68
2023/09/17 08:17:48;;;;;;;10.52;9.52;;;;;;;20.99;80.29;101498.03;6156555;28;20876;-71
2023/09/17 08:21:09;;;;;;;26.52;23.85;;;;;;;21.09;81.19;101503.28;6153588;28;20230;-72
2023/09/17 08:24:30;;;;;;;148.68;136.07;;;;;;;21.88;80.99;101500.50;6150609;28;20504;-68
2023/09/17 08:27:53;;;;;;;47.08;42.80;;;;;;;22.13;77.38;101501.00;6140704;28;20238;-69
2023/09/17 08:31:14;;;;;;;183.05;166.88;;;;;;;22.84;76.64;101494.47;6151767;28;20242;-68
2023/09/17 08:34:36;;;;;;;10.40;9.35;;;;;;;22.53;74.10;101502.22;6148461;28;20226;-68
2023/09/17 08:37:57;;;;;;;6.05;5.45;;;;;;;22.38;75.27;101499.56;6150040;28;20253;-68
2023/09/17 08:41:19;;;;;;;5.95;5.38;;;;;;;22.41;75.30;101496.41;6156332;28;20227;-67
2023/09/17 08:44:43;;;;;;;5.88;5.35;;;;;;;22.37;75.57;101495.09;6145119;28;20234;-67
2023/09/17 08:48:05;;;;;;;5.85;5.22;;;;;;;22.35;75.36;101504.56;6107787;28;22026;-68
2023/09/17 08:51:30;;;;;;;5.25;4.75;;;;;;;22.20;76.24;101500.00;6132641;28;20238;-68
2023/09/17 08:54:52;;;;;;;5.50;5.10;;;;;;;22.02;76.03;101501.50;6130027;28;20242;-67
2023/09/17 08:58:16;;;;;;;5.18;4.45;;;;;;;21.95;76.79;101509.69;6112344;28;20605;-68
2023/09/17 09:01:40;;;;;;;6.80;5.00;;;;;;;21.57;77.41;101502.63;6101272;28;22434;-67
2023/09/17 09:05:03;;;;;;;5.72;5.22;;;;;;;21.76;77.57;101503.94;6117158;28;20603;-68
2023/09/17 09:08:25;;;;;;;4.85;4.45;;;;;;;21.91;77.09;101491.88;6124338;28;20562;-67
2023/09/17 09:11:47;;;;;;;5.25;4.25;;;;;;;22.48;75.46;101496.47;6122680;28;20261;-68
2023/09/17 09:15:09;;;;;;;4.43;4.13;;;;;;;22.82;74.11;101488.31;6124216;28;20310;-67
2023/09/17 09:18:32;;;;;;;4.88;4.38;;;;;;;22.82;73.44;101491.88;6146423;28;20238;-68
2023/09/17 09:21:53;;;;;;;7.05;6.47;;;;;;;23.18;73.66;101479.81;6138935;28;20357;-68
2023/09/17 09:25:14;;;;;;;4.95;4.55;;;;;;;23.30;71.77;101473.53;6136593;28;20255;-69
2023/09/17 09:28:36;;;;;;;5.50;5.07;;;;;;;23.22;71.80;101478.41;6157219;28;20231;-69
2023/09/17 09:31:57;;;;;;;4.60;4.28;;;;;;;23.04;70.35;101482.53;6152230;28;20242;-69
2023/09/17 09:35:20;;;;;;;4.50;4.18;;;;;;;22.94;69.83;101482.06;6164676;28;20238;-68
2023/09/17 09:38:41;;;;;;;7.03;4.40;;;;;;;22.96;70.07;101477.19;6162110;28;20609;-67
2023/09/17 09:42:02;;;;;;;4.82;3.88;;;;;;;22.84;70.06;101475.22;6160077;28;20238;-69
2023/09/17 09:45:23;;;;;;;5.55;5.05;;;;;;;23.02;69.66;101470.88;6156710;28;20321;-68
2023/09/17 09:48:45;;;;;;;4.72;4.32;;;;;;;23.03;69.73;101468.97;6158590;28;20621;-68
2023/09/17 09:52:07;;;;;;;4.28;3.90;;;;;;;23.12;70.02;101467.75;6161202;28;20238;-69
2023/09/17 09:55:29;;;;;;;5.95;4.72;;;;;;;23.01;70.59;101465.56;6160289;28;20230;-68
2023/09/17 09:58:49;;;;;;;4.85;4.45;;;;;;;22.97;69.26;101470.63;6149920;28;20249;-68
2023/09/17 10:02:13;;;;;;;4.60;3.83;;;;;;;22.96;68.96;101466.19;6160498;28;20231;-68
2023/09/17 10:05:34;;;;;;;4.22;3.83;;;;;;;23.18;68.65;101460.56;6159343;28;20298;-68
2023/09/17 10:08:58;;;;;;;4.47;4.07;;;;;;;23.56;67.41;101470.09;6157410;28;20234;-68
2023/09/17 10:12:19;;;;;;;4.93;4.45;;;;;;;23.76;65.72;101468.28;6156993;28;20230;-69
2023/09/17 10:15:41;;;;;;;5.90;4.13;;;;;;;24.14;65.18;101461.16;6153944;28;20377;-71
2023/09/17 10:19:04;;;;;;;5.75;3.95;;;;;;;24.42;63.48;101461.81;6157838;28;20255;-69
2023/09/17 10:22:25;;;;;;;5.95;5.45;;;;;;;25.13;62.03;101457.28;6145857;28;20506;-68
2023/09/17 10:25:48;;;;;;;5.15;4.30;;;;;;;25.80;60.60;101454.03;6158796;28;20388;-68
2023/09/17 10:29:10;;;;;;;3.95;3.53;;;;;;;25.68;59.83;101447.50;6150047;28;20227;-67
2023/09/17 10:32:33;;;;;;;4.03;3.60;;;;;;;25.93;59.36;101458.63;6148733;28;20250;-68
2023/09/17 10:35:57;;;;;;;4.63;4.25;;;;;;;25.23;59.59;101449.38;6143723;28;20230;-68
2023/09/17 10:39:20;;;;;;;4.63;4.07;;;;;;;26.33;58.18;101460.06;6138633;28;20608;-67
2023/09/17 10:42:44;;;;;;;5.47;3.67;;;;;;;26.07;56.80;101454.72;6146297;28;20238;-68
2023/09/17 10:46:06;;;;;;;3.55;3.25;;;;;;;27.40;53.95;101451.34;6144888;28;20242;-67
2023/09/17 10:49:27;;;;;;;4.95;4.45;;;;;;;28.52;50.63;101445.00;6143793;28;20242;-66
2023/09/17 10:52:48;;;;;;;3.42;3.13;;;;;;;26.75;54.03;101442.69;6142997;28;20223;-67
2023/09/17 10:56:11;;;;;;;4.15;3.55;;;;;;;26.34;55.54;101447.09;6142004;28;20234;-67
2023/09/17 10:59:34;;;;;;;3.97;3.67;;;;;;;25.64;57.21;101437.97;6142833;28;20254;-68
2023/09/17 11:03:00;;;;;;;5.22;3.65;;;;;;;25.37;58.05;101434.47;6143551;28;20339;-69
2023/09/17 11:06:24;;;;;;;4.57;4.05;;;;;;;25.64;58.39;101421.38;6151273;28;20234;-67
2023/09/17 11:09:46;;;;;;;3.05;2.85;;;;;;;28.55;51.34;101423.16;6156706;28;20227;-68
2023/09/17 11:13:07;;;;;;;4.38;4.07;;;;;;;32.26;45.11;101413.91;6162318;28;20588;-67
2023/09/17 11:16:30;;;;;;;4.50;3.90;;;;;;;32.53;42.82;101429.75;6161461;28;20779;-67
2023/09/17 11:19:51;;;;;;;3.40;3.10;;;;;;;32.83;41.76;101410.44;6161308;28;20514;-67
2023/09/17 11:23:15;;;;;;;5.35;3.75;;;;;;;34.70;38.39;101417.38;6160219;28;20239;-67
2023/09/17 11:26:37;;;;;;;3.50;2.75;;;;;;;33.70;39.54;101422.63;6158382;28;20230;-67
2023/09/17 11:29:58;;;;;;;3.30;3.05;;;;;;;33.28;39.84;101424.66;6160432;28;20613;-67
2023/09/17 11:33:22;;;;;;;4.07;3.67;;;;;;;32.38;41.06;101410.09;6148506;28;20234;-67
2023/09/17 11:36:44;;;;;;;3.25;3.05;;;;;;;30.10;45.50;101413.72;6137511;28;20496;-68
2023/09/17 11:40:10;;;;;;;3.50;3.17;;;;;;;30.18;45.76;101415.25;6137095;28;20243;-67
2023/09/17 11:43:32;;;;;;;2.75;2.55;;;;;;;32.09;42.52;101427.13;6140144;28;20231;-67
2023/09/17 11:46:53;;;;;;;3.70;2.83;;;;;;;32.90;41.07;101419.41;6131772;28;20230;-67
2023/09/17 11:50:15;;;;;;;4.35;3.53;;;;;;;31.84;41.80;101423.22;6117539;28;20738;-67
2023/09/17 11:53:49;;;;;;;3.55;3.10;;;;;;;31.46;43.44;101424.19;6131493;28;20234;-67
2023/09/17 11:57:10;;;;;;;4.40;4.00;;;;;;;29.84;46.37;101422.69;6132106;28;20226;-68
2023/09/17 12:00:31;;;;;;;6.50;4.47;;;;;;;28.46;49.12;101427.38;6137002;28;20277;-67
2023/09/17 12:03:54;;;;;;;4.32;3.92;;;;;;;29.04;49.20;101414.31;6133186;28;20317;-67
2023/09/17 12:07:16;;;;;;;3.13;2.90;;;;;;;28.88;50.23;101409.53;6148826;28;20230;-67
2023/09/17 12:10:49;;;;;;;4.30;3.90;;;;;;;27.99;51.65;101408.97;6156489;28;20309;-66
2023/09/17 12:14:11;;;;;;;5.28;4.32;;;;;;;27.02;53.37;101403.63;6154454;28;22484;-67
2023/09/17 12:17:34;;;;;;;4.07;3.22;;;;;;;26.53;55.21;101402.66;6154133;28;20231;-67
2023/09/17 12:20:57;;;;;;;3.70;3.28;;;;;;;26.27;56.01;101405.66;6146679;28;20605;-67
2023/09/17 12:24:25;;;;;;;5.25;4.05;;;;;;;26.49;56.20;101409.72;6146274;28;20262;-67
2023/09/17 12:27:47;;;;;;;4.90;3.30;;;;;;;26.32;56.78;101399.44;6139676;28;20266;-67
2023/09/17 12:31:08;;;;;;;4.70;4.15;;;;;;;26.25;56.70;101402.28;6145580;28;20231;-67
2023/09/17 12:34:29;;;;;;;6.53;3.38;;;;;;;25.92;57.85;101405.28;6147846;28;20255;-67
2023/09/17 12:37:50;;;;;;;4.20;3.65;;;;;;;25.74;58.70;101410.69;6149911;28;20320;-68
2023/09/17 12:41:12;;;;;;;3.42;3.13;;;;;;;25.85;58.39;101404.47;6147211;28;20231;-68
2023/09/17 12:44:33;;;;;;;4.53;4.10;;;;;;;25.51;59.43;101395.78;6142070;28;20246;-68
2023/09/17 12:47:54;;;;;;;3.95;3.40;;;;;;;25.29;61.12;101393.28;6145453;28;20250;-67
2023/09/17 12:51:16;;;;;;;4.22;3.83;;;;;;;25.18;62.11;101405.00;6168438;28;20325;-67
2023/09/17 12:54:37;;;;;;;5.57;5.05;;;;;;;25.07;63.49;101402.09;6166438;28;20231;-67
2023/09/17 12:57:59;;;;;;;4.05;3.10;;;;;;;24.95;63.56;101395.56;6166506;28;20618;-67
2023/09/17 13:01:20;;;;;;;5.38;4.70;;;;;;;24.85;64.19;101404.28;6168022;28;20258;-67
2023/09/17 13:04:43;;;;;;;3.78;3.45;;;;;;;24.80;64.67;101398.59;6160985;28;20258;-67
2023/09/17 13:08:05;;;;;;;4.32;3.92;;;;;;;24.61;64.72;101394.75;6163957;28;20231;-67
2023/09/17 13:11:26;;;;;;;3.90;3.58;;;;;;;24.66;65.05;101388.59;6162471;28;20229;-67
2023/09/17 13:14:51;;;;;;;3.28;2.97;;;;;;;24.64;65.46;101392.66;6160757;28;20332;-68
2023/09/17 13:18:12;;;;;;;3.67;3.38;;;;;;;24.64;65.94;101387.97;6166603;28;20238;-67
2023/09/17 13:21:33;;;;;;;4.55;4.15;;;;;;;24.54;65.75;101387.56;6164487;28;20530;-69
2023/09/17 13:24:54;;;;;;;5.45;4.10;;;;;;;24.44;66.60;101373.38;6164730;28;20250;-67
2023/09/17 13:28:19;;;;;;;5.80;4.97;;;;;;;24.38;67.51;101366.81;6167518;28;20242;-67
2023/09/17 13:31:41;;;;;;;6.32;5.63;;;;;;;24.38;68.53;101355.78;6163905;28;20600;-67
2023/09/17 13:35:08;;;;;;;5.45;4.82;;;;;;;24.39;69.55;101362.13;6164055;28;20234;-67
2023/09/17 13:38:29;;;;;;;5.22;4.53;;;;;;;24.33;70.29;101351.97;6164653;28;20242;-68
2023/09/17 13:41:50;;;;;;;5.07;4.68;;;;;;;24.37;70.80;101351.31;6163018;28;20234;-67
2023/09/17 13:45:12;;;;;;;5.35;4.72;;;;;;;24.34;71.75;101354.53;6156827;28;20230;-68
2023/09/17 13:48:34;;;;;;;5.35;4.70;;;;;;;24.31;72.14;101359.59;6156847;28;20230;-68
2023/09/17 13:51:55;;;;;;;6.28;4.10;;;;;;;24.32;72.05;101355.81;6166721;28;20226;-67
2023/09/17 13:55:17;;;;;;;5.97;5.43;;;;;;;24.33;72.08;101352.81;6162746;28;20230;-68
2023/09/17 13:58:38;;;;;;;4.72;4.32;;;;;;;24.38;71.71;101342.00;6159890;28;20238;-67
2023/09/17 14:01:59;;;;;;;5.90;5.40;;;;;;;24.26;72.59;101340.13;6159041;28;20242;-68
2023/09/17 14:05:22;;;;;;;4.75;4.35;;;;;;;24.17;72.16;101325.72;6154628;28;20520;-67
2023/09/17 14:08:43;;;;;;;5.60;5.10;;;;;;;24.15;72.37;101325.09;6159726;28;21771;-67
2023/09/17 14:12:07;;;;;;;6.03;5.28;;;;;;;24.15;72.34;101325.09;6171318;28;20789;-66
2023/09/17 14:15:28;;;;;;;4.85;4.45;;;;;;;24.24;71.86;101312.75;6156468;28;20321;-68
2023/09/17 14:18:49;;;;;;;5.82;5.32;;;;;;;24.15;72.42;101313.22;6164535;28;20251;-67
2023/09/17 14:22:11;;;;;;;4.03;3.72;;;;;;;24.18;72.53;101308.09;6158570;28;20229;-67
2023/09/17 14:25:32;;;;;;;5.15;4.10;;;;;;;24.19;72.15;101301.53;6158654;28;20321;-67
2023/09/17 14:28:53;;;;;;;4.47;4.18;;;;;;;24.43;71.27;101303.59;6148699;28;20226;-67
2023/09/17 14:32:13;;;;;;;4.45;4.15;;;;;;;24.93;70.00;101295.63;6154297;28;20234;-67
2023/09/17 14:35:34;;;;;;;4.97;4.20;;;;;;;25.35;68.09;101283.88;6152126;28;20257;-67
2023/09/17 14:38:57;;;;;;;4.45;4.15;;;;;;;25.35;67.26;101276.44;6152723;28;20628;-67
2023/09/17 14:42:19;;;;;;;5.03;4.13;;;;;;;25.49;67.09;101277.25;6151013;28;20230;-66
2023/09/17 14:45:40;;;;;;;7.70;3.53;;;;;;;25.54;66.60;101282.94;6159380;28;20322;-67
2023/09/17 14:49:01;;;;;;;4.22;3.83;;;;;;;25.63;65.40;101284.34;6157384;28;20234;-67
2023/09/17 14:52:21;;;;;;;2.90;2.65;;;;;;;25.38;65.83;101281.53;6157036;28;20231;-67
2023/09/17 14:55:45;;;;;;;5.95;4.93;;;;;;;25.52;65.21;101290.59;6154100;28;20238;-66
2023/09/17 14:59:05;;;;;;;5.15;4.68;;;;;;;25.41;65.17;101285.78;6156812;28;20596;-68
2023/09/17 15:02:27;;;;;;;4.28;3.88;;;;;;;25.46;65.80;101282.34;6156078;28;20230;-67
2023/09/17 15:05:48;;;;;;;4.20;3.83;;;;;;;25.36;65.70;101278.16;6157715;28;20238;-67
2023/09/17 15:09:10;;;;;;;6.05;5.45;;;;;;;25.28;66.08;101274.81;6145964;28;20230;-67
2023/09/17 15:12:32;;;;;;;4.63;4.32;;;;;;;25.31;65.68;101268.84;6145017;28;20600;-67
2023/09/17 15:15:53;;;;;;;4.03;3.65;;;;;;;25.39;65.32;101266.66;6144827;28;20234;-67
2023/09/17 15:19:14;;;;;;;4.38;3.80;;;;;;;25.47;65.29;101254.50;6146780;28;20262;-67
2023/09/17 15:22:37;;;;;;;6.10;5.32;;;;;;;25.48;65.21;101256.22;6118513;28;20242;-67
2023/09/17 15:25:58;;;;;;;4.38;4.03;;;;;;;25.62;64.59;101255.03;6145805;28;20230;-67
2023/09/17 15:29:20;;;;;;;3.85;3.55;;;;;;;25.82;64.34;101250.19;6145631;28;20230;-67
2023/09/17 15:32:41;;;;;;;4.63;4.22;;;;;;;25.85;64.39;101259.94;6145154;28;20279;-67
2023/09/17 15:36:03;;;;;;;4.40;4.00;;;;;;;25.99;64.08;101254.03;6147547;28;20234;-66
2023/09/17 15:39:24;;;;;;;4.63;3.95;;;;;;;26.39;63.26;101256.44;6156141;28;20238;-67